createdAt,value
2019-01-03T00:01:23.699Z,0.30
2019-01-03T00:04:25.272Z,0.30
2019-01-03T00:07:26.278Z,0.30
2019-01-03T00:10:27.149Z,0.27
2019-01-03T00:13:27.815Z,0.40
2019-01-03T00:16:32.373Z,0.60
2019-01-03T00:19:32.290Z,0.30
2019-01-03T00:22:36.392Z,0.20
2019-01-03T00:25:39.347Z,0.63
2019-01-03T00:28:40.525Z,0.30
2019-01-03T00:31:42.768Z,0.50
2019-01-03T00:34:43.752Z,0.30
2019-01-03T00:37:44.977Z,0.30
2019-01-03T00:40:46.259Z,0.33
2019-01-03T00:43:46.983Z,0.30
2019-01-03T00:46:48.069Z,0.30
2019-01-03T00:49:52.037Z,0.33
2019-01-03T00:52:53.484Z,0.30
2019-01-03T00:56:01.020Z,0.60
2019-01-03T00:59:02.404Z,0.57
2019-01-03T01:02:03.416Z,0.30
2019-01-03T01:05:04.494Z,0.60
2019-01-03T01:08:05.373Z,0.33
2019-01-03T01:11:06.506Z,0.40
2019-01-03T01:14:07.244Z,0.60
2019-01-03T01:17:14.428Z,0.30
2019-01-03T01:20:15.246Z,0.33
2019-01-03T01:23:04.662Z,0.20
2019-01-03T01:26:06.003Z,0.23
2019-01-03T01:29:04.690Z,0.30
2019-01-03T01:32:12.262Z,0.30
2019-01-03T01:35:13.836Z,0.40
2019-01-03T01:38:14.976Z,0.30
2019-01-03T01:41:19.127Z,0.30
2019-01-03T01:44:21.219Z,0.30
2019-01-03T01:47:22.437Z,0.33
2019-01-03T01:50:17.073Z,0.40
2019-01-03T01:53:18.250Z,0.30
2019-01-03T01:56:19.351Z,0.40
2019-01-03T01:59:20.580Z,0.53
2019-01-03T02:02:20.035Z,0.23
2019-01-03T02:05:21.115Z,0.33
2019-01-03T02:08:21.840Z,0.30
2019-01-03T02:11:23.003Z,0.40
2019-01-03T02:14:24.528Z,0.30
2019-01-03T02:17:25.494Z,0.20
2019-01-03T02:20:26.732Z,0.30
2019-01-03T02:23:34.003Z,0.20
2019-01-03T02:26:35.045Z,0.50
2019-01-03T02:29:36.404Z,0.20
2019-01-03T02:32:40.378Z,0.13
2019-01-03T02:35:36.904Z,0.20
2019-01-03T02:38:38.336Z,0.30
2019-01-03T02:41:39.375Z,0.40
2019-01-03T02:44:39.920Z,0.80
2019-01-03T02:47:40.810Z,0.30
2019-01-03T02:50:42.177Z,0.40
2019-01-03T02:53:43.675Z,0.30
2019-01-03T02:56:44.899Z,0.30
2019-01-03T02:59:51.919Z,0.67
2019-01-03T03:02:52.825Z,0.30
2019-01-03T03:05:53.786Z,0.20
2019-01-03T03:08:54.452Z,0.30
2019-01-03T03:12:01.464Z,0.50
2019-01-03T03:15:07.888Z,0.40
2019-01-03T03:18:08.560Z,0.47
2019-01-03T03:21:09.238Z,0.30
2019-01-03T03:24:10.003Z,0.40
2019-01-03T03:27:10.520Z,0.20
2019-01-03T03:30:11.349Z,0.30
2019-01-03T03:33:12.245Z,0.40
2019-01-03T03:36:13.099Z,0.20
2019-01-03T03:39:13.697Z,0.20
2019-01-03T03:42:14.622Z,0.20
2019-01-03T03:45:05.961Z,0.40
2019-01-03T03:48:07.759Z,0.40
2019-01-03T03:50:59.971Z,0.30
2019-01-03T03:54:08.901Z,0.30
2019-01-03T03:57:13.404Z,0.30
2019-01-03T04:00:20.811Z,0.30
2019-01-03T04:03:21.802Z,0.20
2019-01-03T04:06:23.205Z,0.30
2019-01-03T04:09:24.672Z,0.23
2019-01-03T04:12:25.853Z,0.20
2019-01-03T04:15:27.257Z,0.40
2019-01-03T04:18:28.334Z,0.20
2019-01-03T04:21:29.158Z,0.50
2019-01-03T04:24:27.413Z,0.20
2019-01-03T04:27:25.344Z,0.27
2019-01-03T04:30:26.872Z,0.20
2019-01-03T04:33:28.877Z,0.40
2019-01-03T04:36:29.706Z,0.20
2019-01-03T04:39:30.667Z,0.50
2019-01-03T04:42:31.789Z,0.20
2019-01-03T04:45:38.836Z,0.30
2019-01-03T04:48:39.686Z,0.27
2019-01-03T04:51:36.531Z,0.37
2019-01-03T04:54:37.819Z,0.20
2019-01-03T04:57:44.652Z,0.20
2019-01-03T05:00:53.252Z,0.20
2019-01-03T05:03:54.732Z,0.20
2019-01-03T05:07:02.085Z,0.20
2019-01-03T05:10:00.643Z,0.20
2019-01-03T05:13:02.079Z,0.30
2019-01-03T05:16:02.678Z,0.30
2019-01-03T05:19:03.534Z,0.20
2019-01-03T05:22:04.885Z,0.37
2019-01-03T05:25:06.290Z,0.20
2019-01-03T05:28:07.366Z,0.30
2019-01-03T05:31:08.657Z,0.20
2019-01-03T05:34:09.117Z,0.23
2019-01-03T05:37:10.652Z,0.20
2019-01-03T05:40:06.412Z,0.20
2019-01-03T05:43:07.220Z,0.20
2019-01-03T05:46:07.994Z,0.20
2019-01-03T05:49:09.199Z,0.23
2019-01-03T05:52:13.303Z,0.30
2019-01-03T05:55:14.005Z,0.20
2019-01-03T05:58:14.888Z,0.20
2019-01-03T06:01:16.701Z,0.20
2019-01-03T06:04:17.904Z,0.13
2019-01-03T06:07:18.744Z,0.20
2019-01-03T06:10:19.806Z,0.20
2019-01-03T06:13:20.679Z,0.20
2019-01-03T06:16:21.258Z,0.23
2019-01-03T06:19:22.957Z,0.20
2019-01-03T06:25:23.112Z,0.27
2019-01-03T06:28:24.500Z,0.20
2019-01-03T06:31:23.326Z,0.20
2019-01-03T06:34:24.507Z,0.20
2019-01-03T06:37:25.482Z,0.30
2019-01-03T06:40:26.525Z,0.10
2019-01-03T06:43:22.131Z,0.20
2019-01-03T06:46:33.569Z,0.40
2019-01-03T06:49:23.805Z,0.20
2019-01-03T06:52:25.171Z,0.10
2019-01-03T06:55:26.641Z,0.20
2019-01-03T06:58:28.191Z,0.20
2019-01-03T07:01:29.120Z,0.20
2019-01-03T07:04:30.142Z,0.20
2019-01-03T07:07:30.951Z,0.30
2019-01-03T07:10:31.775Z,0.60
2019-01-03T07:13:33.087Z,0.17
2019-01-03T07:16:36.900Z,0.20
2019-01-03T07:19:38.123Z,0.20
2019-01-03T07:22:44.732Z,0.20
2019-01-03T07:25:48.651Z,0.20
2019-01-03T07:28:49.775Z,0.40
2019-01-03T07:31:51.078Z,0.20
2019-01-03T07:34:40.544Z,0.23
2019-01-03T07:37:49.562Z,0.20
2019-01-03T07:40:53.136Z,0.20
2019-01-03T07:43:42.744Z,0.20
2019-01-03T07:46:50.299Z,0.20
2019-01-03T07:49:51.346Z,0.20
2019-01-03T07:52:47.196Z,0.20
2019-01-03T07:55:38.936Z,0.30
2019-01-03T07:58:39.423Z,0.43
2019-01-03T08:01:40.913Z,0.50
2019-01-03T08:04:41.772Z,0.30
2019-01-03T08:07:42.573Z,0.77
2019-01-03T08:10:43.926Z,0.30
2019-01-03T08:13:45.858Z,0.20
2019-01-03T08:16:46.432Z,0.43
2019-01-03T08:19:51.274Z,0.30
2019-01-03T08:22:46.764Z,0.20
2019-01-03T08:25:47.991Z,0.30
2019-01-03T08:28:55.015Z,0.30
2019-01-03T08:31:56.151Z,0.30
2019-01-03T08:34:47.861Z,0.30
2019-01-03T08:37:48.486Z,0.40
2019-01-03T08:40:49.669Z,0.37
2019-01-03T08:43:50.393Z,0.20
2019-01-03T08:46:51.314Z,0.30
2019-01-03T08:49:52.332Z,0.37
2019-01-03T08:52:59.725Z,0.30
2019-01-03T08:56:02.408Z,0.37
2019-01-03T08:59:03.460Z,2.27
2019-01-03T09:01:53.209Z,0.40
2019-01-03T09:05:01.508Z,0.40
2019-01-03T09:08:02.478Z,0.50
2019-01-03T09:11:03.919Z,0.30
2019-01-03T09:17:04.831Z,0.33
2019-01-03T09:19:54.579Z,0.40
2019-01-03T09:22:58.617Z,0.30
2019-01-03T09:25:48.083Z,0.90
2019-01-03T09:28:52.249Z,0.60
2019-01-03T09:31:53.463Z,0.40
2019-01-03T09:34:54.101Z,0.40
2019-01-03T09:37:55.031Z,0.40
2019-01-03T09:40:59.431Z,0.30
2019-01-03T09:43:55.803Z,0.33
2019-01-03T09:46:45.465Z,0.40
2019-01-03T09:49:27.937Z,0.60
2019-01-03T09:52:10.199Z,0.27
2019-01-03T09:54:52.613Z,0.20
2019-01-03T09:57:34.986Z,0.50
2019-01-03T10:00:17.735Z,0.40
2019-01-03T10:03:00.165Z,0.23
2019-01-03T10:05:42.264Z,0.20
2019-01-03T10:08:24.732Z,0.30
2019-01-03T10:10:55.391Z,0.50
2019-01-03T10:13:26.052Z,0.30
2019-01-03T10:16:07.896Z,0.57
2019-01-03T10:18:50.379Z,0.40
2019-01-03T10:21:20.930Z,0.50
2019-01-03T10:24:02.893Z,0.23
2019-01-03T10:26:45.623Z,0.50
2019-01-03T10:29:29.716Z,0.33
2019-01-03T10:32:11.463Z,0.43
2019-01-03T10:34:53.581Z,0.30
2019-01-03T10:37:36.216Z,0.20
2019-01-03T10:40:18.342Z,0.20
2019-01-03T10:43:00.226Z,0.20
2019-01-03T10:45:42.316Z,0.30
2019-01-03T10:48:24.804Z,0.30
2019-01-03T10:51:07.550Z,0.20
2019-01-03T10:53:49.831Z,0.20
2019-01-03T10:56:32.047Z,0.20
2019-01-03T10:59:13.935Z,0.60
2019-01-03T11:01:56.479Z,0.40
2019-01-03T11:04:39.231Z,0.20
2019-01-03T11:07:21.511Z,0.20
2019-01-03T11:10:03.651Z,0.20
2019-01-03T11:12:46.198Z,0.40
2019-01-03T11:15:28.116Z,0.30
2019-01-03T11:18:10.487Z,0.20
2019-01-03T11:20:52.932Z,0.40
2019-01-03T11:23:35.153Z,0.37
2019-01-03T11:26:06.140Z,0.20
2019-01-03T11:28:36.954Z,0.30
2019-01-03T11:31:07.540Z,0.30
2019-01-03T11:33:38.344Z,0.27
2019-01-03T11:36:08.853Z,0.20
2019-01-03T11:38:51.396Z,0.20
2019-01-03T11:41:33.798Z,0.30
2019-01-03T11:44:16.243Z,0.23
2019-01-03T11:46:58.109Z,0.30
2019-01-03T11:49:43.294Z,0.30
2019-01-03T11:52:25.111Z,0.10
2019-01-03T11:55:07.784Z,0.20
2019-01-03T11:57:50.155Z,0.37
2019-01-03T12:00:32.608Z,0.20
2019-01-03T12:03:15.291Z,0.20
2019-01-03T12:05:57.367Z,0.20
2019-01-03T12:08:39.276Z,0.20
2019-01-03T12:11:21.726Z,0.20
2019-01-03T12:14:03.639Z,0.23
2019-01-03T12:16:45.842Z,0.20
2019-01-03T12:19:28.033Z,0.23
2019-01-03T12:22:10.301Z,0.30
2019-01-03T12:25:09.403Z,0.27
2019-01-03T12:27:51.289Z,0.27
2019-01-03T12:30:33.039Z,0.40
2019-01-03T12:33:15.104Z,0.30
2019-01-03T12:35:57.737Z,0.30
2019-01-03T12:38:40.201Z,0.30
2019-01-03T12:41:22.205Z,0.30
2019-01-03T12:44:04.128Z,0.30
2019-01-03T12:46:46.490Z,0.50
2019-01-03T12:49:29.009Z,0.40
2019-01-03T12:51:59.521Z,0.27
2019-01-03T12:54:41.552Z,0.60
2019-01-03T12:57:23.921Z,0.40
2019-01-03T13:00:06.204Z,0.60
2019-01-03T13:02:48.005Z,0.40
2019-01-03T13:05:30.406Z,0.30
2019-01-03T13:08:12.080Z,0.40
2019-01-03T13:10:54.238Z,0.30
2019-01-03T13:13:36.382Z,0.30
2019-01-03T13:16:18.712Z,0.40
2019-01-03T13:19:00.476Z,0.40
2019-01-03T13:21:43.085Z,0.30
2019-01-03T13:24:25.580Z,0.60
2019-01-03T13:27:08.085Z,0.60
2019-01-03T13:29:50.584Z,0.40
2019-01-03T13:32:32.717Z,0.50
2019-01-03T13:35:14.716Z,0.40
2019-01-03T13:37:56.952Z,0.80
2019-01-03T13:40:39.188Z,0.57
2019-01-03T13:43:21.320Z,0.60
2019-01-03T13:46:03.360Z,0.70
2019-01-03T13:48:45.623Z,0.70
2019-01-03T13:51:27.306Z,0.70
2019-01-03T13:54:09.597Z,0.60
2019-01-03T13:56:52.107Z,0.60
2019-01-03T13:59:34.427Z,0.60
2019-01-03T14:02:16.508Z,0.67
2019-01-03T14:04:58.640Z,1.07
2019-01-03T14:07:40.849Z,1.23
2019-01-03T14:10:23.954Z,1.10
2019-01-03T14:13:06.188Z,0.93
2019-01-03T14:15:49.149Z,0.93
2019-01-03T14:18:31.308Z,0.60
2019-01-03T14:21:13.640Z,0.80
2019-01-03T14:23:55.451Z,1.00
2019-01-03T14:26:37.704Z,0.73
2019-01-03T14:29:19.397Z,0.90
2019-01-03T14:32:01.813Z,0.67
2019-01-03T14:34:44.222Z,0.70
2019-01-03T14:37:26.998Z,0.67
2019-01-03T14:40:08.773Z,1.27
2019-01-03T14:42:51.484Z,1.00
2019-01-03T14:45:33.920Z,1.43
2019-01-03T14:48:16.077Z,1.43
2019-01-03T14:50:58.612Z,1.43
2019-01-03T14:53:40.769Z,1.50
2019-01-03T14:56:23.268Z,1.33
2019-01-03T14:59:05.715Z,1.17
2019-01-03T15:01:48.056Z,1.07
2019-01-03T15:04:30.326Z,3.20
2019-01-03T15:07:13.463Z,2.43
2019-01-03T15:09:55.777Z,1.37
2019-01-03T15:12:38.213Z,2.47
2019-01-03T15:15:20.745Z,2.00
2019-01-03T15:18:02.889Z,1.60
2019-01-03T15:20:45.116Z,1.90
2019-01-03T15:23:27.667Z,1.70
2019-01-03T15:26:09.580Z,1.67
2019-01-03T15:28:52.305Z,1.60
2019-01-03T15:31:34.953Z,1.40
2019-01-03T15:34:17.351Z,1.60
2019-01-03T15:36:59.528Z,1.63
2019-01-03T15:39:41.555Z,1.63
2019-01-03T15:42:23.740Z,1.30
2019-01-03T15:45:06.017Z,1.67
2019-01-03T15:47:48.796Z,1.40
2019-01-03T15:50:31.713Z,2.37
2019-01-03T15:53:13.440Z,2.00
2019-01-03T15:55:55.761Z,1.70
2019-01-03T15:58:37.929Z,2.10
2019-01-03T16:01:19.766Z,1.60
2019-01-03T16:04:01.954Z,1.77
2019-01-03T16:06:44.177Z,1.73
2019-01-03T16:09:26.442Z,2.13
2019-01-03T16:12:08.705Z,1.83
2019-01-03T16:14:51.378Z,2.00
2019-01-03T16:17:33.281Z,2.47
2019-01-03T16:20:15.505Z,2.10
2019-01-03T16:22:58.154Z,2.97
2019-01-03T16:25:40.729Z,3.97
2019-01-03T16:28:22.345Z,5.70
2019-01-03T16:31:04.713Z,4.23
2019-01-03T16:33:46.684Z,3.90
2019-01-03T16:36:29.590Z,3.33
2019-01-03T16:39:11.985Z,3.70
2019-01-03T16:41:54.302Z,3.47
2019-01-03T16:44:36.802Z,4.70
2019-01-03T16:47:19.268Z,4.20
2019-01-03T16:50:01.129Z,5.20
2019-01-03T16:52:43.455Z,4.90
2019-01-03T16:55:25.527Z,3.67
2019-01-03T16:58:07.984Z,2.47
2019-01-03T17:00:49.832Z,3.40
2019-01-03T17:03:31.807Z,2.33
2019-01-03T17:06:14.300Z,2.40
2019-01-03T17:08:57.666Z,2.07
2019-01-03T17:11:39.468Z,2.53
2019-01-03T17:14:21.711Z,2.40
2019-01-03T17:17:03.515Z,4.00
2019-01-03T17:19:45.858Z,11.53
2019-01-03T17:22:27.619Z,6.70
2019-01-03T17:25:10.012Z,5.77
2019-01-03T17:27:51.873Z,4.10
2019-01-03T17:30:34.725Z,4.97
2019-01-03T17:33:17.417Z,4.13
2019-01-03T17:36:00.025Z,3.53
2019-01-03T17:38:43.796Z,3.97
2019-01-03T17:41:26.327Z,3.37
2019-01-03T17:44:08.040Z,6.00
2019-01-03T17:46:50.311Z,4.40
2019-01-03T17:49:32.767Z,5.43
2019-01-03T17:52:15.209Z,4.70
2019-01-03T17:54:58.086Z,4.87
2019-01-03T17:57:40.600Z,3.90
2019-01-03T18:00:23.335Z,4.37
2019-01-03T18:03:05.903Z,4.00
2019-01-03T18:05:48.073Z,3.80
2019-01-03T18:08:30.001Z,3.93
2019-01-03T18:11:19.495Z,3.60
2019-01-03T18:14:01.932Z,3.53
2019-01-03T18:16:44.239Z,3.60
2019-01-03T18:19:26.697Z,4.00
2019-01-03T18:22:08.900Z,3.00
2019-01-03T18:24:50.614Z,3.30
2019-01-03T18:27:32.844Z,3.70
2019-01-03T18:30:16.152Z,5.30
2019-01-03T18:32:58.149Z,5.67
2019-01-03T18:35:40.418Z,4.80
2019-01-03T18:38:22.928Z,4.77
2019-01-03T18:41:04.759Z,5.73
2019-01-03T18:43:46.804Z,5.67
2019-01-03T18:46:28.811Z,6.70
2019-01-03T18:49:11.079Z,7.63
2019-01-03T18:51:53.224Z,6.80
2019-01-03T18:54:35.138Z,7.50
2019-01-03T18:57:16.903Z,7.93
2019-01-03T18:59:59.169Z,6.63
2019-01-03T19:02:42.020Z,6.47
2019-01-03T19:05:12.464Z,6.37
2019-01-03T19:07:54.255Z,6.07
2019-01-03T19:10:35.935Z,6.60
2019-01-03T19:13:19.490Z,5.53
2019-01-03T19:16:02.588Z,6.63
2019-01-03T19:18:44.722Z,8.27
2019-01-03T19:21:27.213Z,8.70
2019-01-03T19:24:09.532Z,8.80
2019-01-03T19:26:51.918Z,8.50
2019-01-03T19:29:34.243Z,7.40
2019-01-03T19:32:16.851Z,7.60
2019-01-03T19:34:59.159Z,7.90
2019-01-03T19:37:41.953Z,6.97
2019-01-03T19:40:24.529Z,6.90
2019-01-03T19:43:07.615Z,7.10
2019-01-03T19:45:49.637Z,6.23
2019-01-03T19:48:31.103Z,6.40
2019-01-03T19:51:12.476Z,5.90
2019-01-03T19:53:42.789Z,6.13
2019-01-03T19:56:32.985Z,5.37
2019-01-03T19:59:14.678Z,5.60
2019-01-03T20:01:56.648Z,4.17
2019-01-03T20:04:38.767Z,5.17
2019-01-03T20:07:21.216Z,5.67
2019-01-03T20:10:02.133Z,5.37
2019-01-03T20:12:44.253Z,5.43
2019-01-03T20:15:26.272Z,5.63
2019-01-03T20:18:08.084Z,5.30
2019-01-03T20:20:53.023Z,5.80
2019-01-03T20:23:34.844Z,10.83
2019-01-03T20:26:17.599Z,13.00
2019-01-03T20:28:59.657Z,9.27
2019-01-03T20:31:41.895Z,6.77
2019-01-03T20:34:24.502Z,7.27
2019-01-03T20:37:06.644Z,6.30
2019-01-03T20:39:48.633Z,7.47
2019-01-03T20:42:31.448Z,6.20
2019-01-03T20:48:02.078Z,9.20
2019-01-03T20:50:43.899Z,11.90
2019-01-03T20:53:26.158Z,15.10
2019-01-03T20:55:57.019Z,12.10
2019-01-03T20:58:39.327Z,15.03
2019-01-03T21:01:21.836Z,12.67
2019-01-03T21:04:04.240Z,11.67
2019-01-03T21:06:45.983Z,10.60
2019-01-03T21:09:28.236Z,8.93
2019-01-03T21:12:10.980Z,8.50
2019-01-03T21:14:53.376Z,7.60
2019-01-03T21:17:35.209Z,7.27
2019-01-03T21:20:17.665Z,7.63
2019-01-03T21:22:59.656Z,6.97
2019-01-03T21:25:41.426Z,6.87
2019-01-03T21:28:23.219Z,5.90
2019-01-03T21:31:05.396Z,4.60
2019-01-03T21:33:47.596Z,6.23
2019-01-03T21:36:29.454Z,4.67
2019-01-03T21:39:12.073Z,4.60
2019-01-03T21:41:54.371Z,4.50
2019-01-03T21:44:36.617Z,5.00
2019-01-03T21:47:18.972Z,5.47
2019-01-03T21:50:01.389Z,5.80
2019-01-03T21:52:43.766Z,4.87
2019-01-03T21:58:22.400Z,5.73
2019-01-03T22:01:04.918Z,4.90
2019-01-03T22:03:46.974Z,5.43
2019-01-03T22:06:29.104Z,5.57
2019-01-03T22:09:11.012Z,5.27
2019-01-03T22:11:53.160Z,5.10
2019-01-03T22:14:35.457Z,5.40
2019-01-03T22:17:17.625Z,5.33
2019-01-03T22:20:00.263Z,5.37
2019-01-03T22:22:42.039Z,5.87
2019-01-03T22:25:24.377Z,5.77
2019-01-03T22:28:06.334Z,5.10
2019-01-03T22:30:48.740Z,6.47
2019-01-03T22:33:30.546Z,7.83
2019-01-03T22:36:12.458Z,6.67
2019-01-03T22:41:53.957Z,4.60
2019-01-03T22:44:36.088Z,4.60
2019-01-03T22:47:18.294Z,6.87
2019-01-03T22:50:00.714Z,9.23
2019-01-03T22:52:42.516Z,8.03
2019-01-03T22:55:25.900Z,8.30
2019-01-03T22:57:57.597Z,7.27
2019-01-03T23:00:40.164Z,7.63
2019-01-03T23:03:22.644Z,9.43
2019-01-03T23:06:04.825Z,9.23
2019-01-03T23:08:47.596Z,8.97
2019-01-03T23:11:29.832Z,10.33
2019-01-03T23:14:10.686Z,9.63
2019-01-03T23:16:52.918Z,10.77
2019-01-03T23:19:35.293Z,9.17
2019-01-03T23:22:17.486Z,9.20
2019-01-03T23:25:00.087Z,8.13
2019-01-03T23:27:46.167Z,7.80
2019-01-03T23:30:46.386Z,8.03
2019-01-03T23:33:28.030Z,7.77
2019-01-03T23:36:10.131Z,8.23
2019-01-03T23:41:48.704Z,6.77
2019-01-03T23:44:30.790Z,5.70
2019-01-03T23:47:13.053Z,5.00
2019-01-03T23:49:55.023Z,4.80
2019-01-03T23:52:36.882Z,4.43
2019-01-03T23:55:18.916Z,4.47
2019-01-03T23:58:01.368Z,4.97
